sensor_id;sensor_type;location;lat;lon;timestamp;P1;durP1;ratioP1;P2;durP2;ratioP2
51907;SDS011;39320;53.214;6.556;2023-07-13T00:01:53;4.10;;;1.77;;
51907;SDS011;39320;53.214;6.556;2023-07-13T00:04:20;5.75;;;2.03;;
51907;SDS011;39320;53.214;6.556;2023-07-13T00:06:48;5.50;;;2.00;;
51907;SDS011;39320;53.214;6.556;2023-07-13T00:09:15;5.93;;;1.65;;
51907;SDS011;39320;53.214;6.556;2023-07-13T00:11:42;5.57;;;1.73;;
51907;SDS011;39320;53.214;6.556;2023-07-13T00:14:09;5.38;;;1.88;;
51907;SDS011;39320;53.214;6.556;2023-07-13T00:16:36;6.15;;;2.35;;
51907;SDS011;39320;53.214;6.556;2023-07-13T00:19:04;6.35;;;2.00;;
51907;SDS011;39320;53.214;6.556;2023-07-13T00:21:30;4.22;;;1.95;;
51907;SDS011;39320;53.214;6.556;2023-07-13T00:23:56;4.00;;;1.50;;
51907;SDS011;39320;53.214;6.556;2023-07-13T00:26:22;6.10;;;1.83;;
51907;SDS011;39320;53.214;6.556;2023-07-13T00:28:48;4.70;;;1.80;;
51907;SDS011;39320;53.214;6.556;2023-07-13T00:31:14;6.63;;;1.88;;
51907;SDS011;39320;53.214;6.556;2023-07-13T00:33:40;2.95;;;1.83;;
51907;SDS011;39320;53.214;6.556;2023-07-13T00:36:07;3.42;;;2.13;;
51907;SDS011;39320;53.214;6.556;2023-07-13T00:38:33;4.18;;;2.28;;
51907;SDS011;39320;53.214;6.556;2023-07-13T00:40:59;3.55;;;1.63;;
51907;SDS011;39320;53.214;6.556;2023-07-13T00:43:26;5.30;;;1.77;;
51907;SDS011;39320;53.214;6.556;2023-07-13T00:48:20;3.92;;;2.00;;
51907;SDS011;39320;53.214;6.556;2023-07-13T00:50:49;4.90;;;2.00;;
51907;SDS011;39320;53.214;6.556;2023-07-13T00:53:19;4.75;;;1.48;;
51907;SDS011;39320;53.214;6.556;2023-07-13T00:55:46;5.93;;;2.13;;
51907;SDS011;39320;53.214;6.556;2023-07-13T00:58:13;4.18;;;1.75;;
51907;SDS011;39320;53.214;6.556;2023-07-13T01:00:40;5.25;;;1.70;;
51907;SDS011;39320;53.214;6.556;2023-07-13T01:03:07;4.75;;;1.90;;
51907;SDS011;39320;53.214;6.556;2023-07-13T01:05:33;4.65;;;1.75;;
51907;SDS011;39320;53.214;6.556;2023-07-13T01:08:00;6.82;;;1.85;;
51907;SDS011;39320;53.214;6.556;2023-07-13T01:10:30;3.20;;;1.58;;
51907;SDS011;39320;53.214;6.556;2023-07-13T01:13:10;4.65;;;1.77;;
51907;SDS011;39320;53.214;6.556;2023-07-13T01:15:37;5.53;;;2.05;;
51907;SDS011;39320;53.214;6.556;2023-07-13T01:18:12;7.07;;;1.80;;
51907;SDS011;39320;53.214;6.556;2023-07-13T01:20:46;6.47;;;2.33;;
51907;SDS011;39320;53.214;6.556;2023-07-13T01:23:16;4.55;;;2.22;;
51907;SDS011;39320;53.214;6.556;2023-07-13T01:25:42;6.70;;;2.40;;
51907;SDS011;39320;53.214;6.556;2023-07-13T01:28:09;4.38;;;1.80;;
51907;SDS011;39320;53.214;6.556;2023-07-13T01:30:35;5.57;;;2.10;;
51907;SDS011;39320;53.214;6.556;2023-07-13T01:33:03;3.85;;;1.80;;
51907;SDS011;39320;53.214;6.556;2023-07-13T01:35:29;4.50;;;1.75;;
51907;SDS011;39320;53.214;6.556;2023-07-13T01:37:55;3.00;;;1.60;;
51907;SDS011;39320;53.214;6.556;2023-07-13T01:40:22;4.18;;;2.30;;
51907;SDS011;39320;53.214;6.556;2023-07-13T01:42:47;4.15;;;1.98;;
51907;SDS011;39320;53.214;6.556;2023-07-13T01:45:13;4.97;;;2.22;;
51907;SDS011;39320;53.214;6.556;2023-07-13T01:47:39;3.38;;;1.58;;
51907;SDS011;39320;53.214;6.556;2023-07-13T01:50:05;4.85;;;1.80;;
51907;SDS011;39320;53.214;6.556;2023-07-13T01:52:31;5.95;;;2.47;;
51907;SDS011;39320;53.214;6.556;2023-07-13T01:54:57;4.55;;;2.00;;
51907;SDS011;39320;53.214;6.556;2023-07-13T01:57:22;4.97;;;2.20;;
51907;SDS011;39320;53.214;6.556;2023-07-13T01:59:48;6.03;;;1.70;;
51907;SDS011;39320;53.214;6.556;2023-07-13T02:02:14;5.25;;;2.05;;
51907;SDS011;39320;53.214;6.556;2023-07-13T02:04:40;3.78;;;1.75;;
51907;SDS011;39320;53.214;6.556;2023-07-13T02:07:05;6.53;;;2.13;;
51907;SDS011;39320;53.214;6.556;2023-07-13T02:09:32;3.97;;;1.98;;
51907;SDS011;39320;53.214;6.556;2023-07-13T02:12:00;4.20;;;1.83;;
51907;SDS011;39320;53.214;6.556;2023-07-13T02:14:26;4.20;;;1.95;;
51907;SDS011;39320;53.214;6.556;2023-07-13T02:16:51;5.55;;;1.55;;
51907;SDS011;39320;53.214;6.556;2023-07-13T02:19:17;6.03;;;1.70;;
51907;SDS011;39320;53.214;6.556;2023-07-13T02:21:43;5.78;;;1.80;;
51907;SDS011;39320;53.214;6.556;2023-07-13T02:24:09;5.40;;;1.75;;
51907;SDS011;39320;53.214;6.556;2023-07-13T02:26:35;4.35;;;1.95;;
51907;SDS011;39320;53.214;6.556;2023-07-13T02:29:01;6.88;;;1.70;;
51907;SDS011;39320;53.214;6.556;2023-07-13T02:31:26;3.97;;;1.98;;
51907;SDS011;39320;53.214;6.556;2023-07-13T02:33:52;5.20;;;1.73;;
51907;SDS011;39320;53.214;6.556;2023-07-13T02:36:18;3.90;;;1.75;;
51907;SDS011;39320;53.214;6.556;2023-07-13T02:38:45;4.10;;;1.65;;
51907;SDS011;39320;53.214;6.556;2023-07-13T02:41:10;2.42;;;1.40;;
51907;SDS011;39320;53.214;6.556;2023-07-13T02:43:37;3.97;;;1.40;;
51907;SDS011;39320;53.214;6.556;2023-07-13T02:46:03;5.32;;;1.80;;
51907;SDS011;39320;53.214;6.556;2023-07-13T02:48:36;4.60;;;1.95;;
51907;SDS011;39320;53.214;6.556;2023-07-13T02:51:03;4.13;;;1.92;;
51907;SDS011;39320;53.214;6.556;2023-07-13T02:53:29;6.85;;;2.30;;
51907;SDS011;39320;53.214;6.556;2023-07-13T02:55:55;5.55;;;2.55;;
51907;SDS011;39320;53.214;6.556;2023-07-13T02:58:21;6.78;;;2.00;;
51907;SDS011;39320;53.214;6.556;2023-07-13T03:00:47;4.28;;;1.92;;
51907;SDS011;39320;53.214;6.556;2023-07-13T03:03:15;6.35;;;2.10;;
51907;SDS011;39320;53.214;6.556;2023-07-13T03:05:42;4.50;;;2.50;;
51907;SDS011;39320;53.214;6.556;2023-07-13T03:08:10;4.85;;;2.20;;
51907;SDS011;39320;53.214;6.556;2023-07-13T03:10:36;8.65;;;2.83;;
51907;SDS011;39320;53.214;6.556;2023-07-13T03:13:05;6.35;;;2.72;;
51907;SDS011;39320;53.214;6.556;2023-07-13T03:15:31;6.07;;;2.15;;
51907;SDS011;39320;53.214;6.556;2023-07-13T03:17:56;7.05;;;2.97;;
51907;SDS011;39320;53.214;6.556;2023-07-13T03:20:22;8.30;;;2.88;;
51907;SDS011;39320;53.214;6.556;2023-07-13T03:22:48;8.77;;;3.00;;
51907;SDS011;39320;53.214;6.556;2023-07-13T03:25:13;6.80;;;3.13;;
51907;SDS011;39320;53.214;6.556;2023-07-13T03:27:39;6.13;;;2.38;;
51907;SDS011;39320;53.214;6.556;2023-07-13T03:30:05;7.53;;;3.22;;
51907;SDS011;39320;53.214;6.556;2023-07-13T03:32:32;5.00;;;2.17;;
51907;SDS011;39320;53.214;6.556;2023-07-13T03:34:58;6.30;;;2.55;;
51907;SDS011;39320;53.214;6.556;2023-07-13T03:37:23;4.18;;;2.10;;
51907;SDS011;39320;53.214;6.556;2023-07-13T03:39:49;9.15;;;2.58;;
51907;SDS011;39320;53.214;6.556;2023-07-13T03:42:15;6.80;;;2.38;;
51907;SDS011;39320;53.214;6.556;2023-07-13T03:44:41;4.57;;;2.42;;
51907;SDS011;39320;53.214;6.556;2023-07-13T03:47:11;6.70;;;2.42;;
51907;SDS011;39320;53.214;6.556;2023-07-13T03:49:37;6.97;;;2.22;;
51907;SDS011;39320;53.214;6.556;2023-07-13T03:52:02;6.07;;;2.80;;
51907;SDS011;39320;53.214;6.556;2023-07-13T03:54:29;4.50;;;2.25;;
51907;SDS011;39320;53.214;6.556;2023-07-13T03:56:55;7.05;;;2.63;;
51907;SDS011;39320;53.214;6.556;2023-07-13T03:59:20;5.35;;;2.28;;
51907;SDS011;39320;53.214;6.556;2023-07-13T04:01:46;7.10;;;2.38;;
51907;SDS011;39320;53.214;6.556;2023-07-13T04:04:12;4.38;;;2.60;;
51907;SDS011;39320;53.214;6.556;2023-07-13T04:06:38;6.80;;;2.58;;
51907;SDS011;39320;53.214;6.556;2023-07-13T04:09:04;6.85;;;2.42;;
51907;SDS011;39320;53.214;6.556;2023-07-13T04:11:34;5.60;;;2.28;;
51907;SDS011;39320;53.214;6.556;2023-07-13T04:14:01;9.13;;;2.63;;
51907;SDS011;39320;53.214;6.556;2023-07-13T04:16:30;5.10;;;1.90;;
51907;SDS011;39320;53.214;6.556;2023-07-13T04:18:56;6.28;;;2.17;;
51907;SDS011;39320;53.214;6.556;2023-07-13T04:21:25;5.90;;;2.35;;
51907;SDS011;39320;53.214;6.556;2023-07-13T04:23:53;6.65;;;2.63;;
51907;SDS011;39320;53.214;6.556;2023-07-13T04:26:20;6.53;;;2.38;;
51907;SDS011;39320;53.214;6.556;2023-07-13T04:28:47;6.85;;;2.90;;
51907;SDS011;39320;53.214;6.556;2023-07-13T04:31:14;7.05;;;2.65;;
51907;SDS011;39320;53.214;6.556;2023-07-13T04:33:40;4.20;;;2.10;;
51907;SDS011;39320;53.214;6.556;2023-07-13T04:36:05;5.00;;;2.55;;
51907;SDS011;39320;53.214;6.556;2023-07-13T04:38:34;3.80;;;2.13;;
51907;SDS011;39320;53.214;6.556;2023-07-13T04:41:05;5.03;;;2.67;;
51907;SDS011;39320;53.214;6.556;2023-07-13T04:43:32;5.63;;;2.55;;
51907;SDS011;39320;53.214;6.556;2023-07-13T04:46:02;7.07;;;2.70;;
51907;SDS011;39320;53.214;6.556;2023-07-13T04:48:30;9.52;;;2.75;;
51907;SDS011;39320;53.214;6.556;2023-07-13T04:50:56;6.90;;;3.05;;
51907;SDS011;39320;53.214;6.556;2023-07-13T04:53:23;6.10;;;2.58;;
51907;SDS011;39320;53.214;6.556;2023-07-13T04:55:49;6.10;;;2.90;;
51907;SDS011;39320;53.214;6.556;2023-07-13T04:58:15;7.28;;;2.55;;
51907;SDS011;39320;53.214;6.556;2023-07-13T05:00:41;7.68;;;2.33;;
51907;SDS011;39320;53.214;6.556;2023-07-13T05:03:16;5.50;;;2.67;;
51907;SDS011;39320;53.214;6.556;2023-07-13T05:05:42;5.65;;;2.47;;
51907;SDS011;39320;53.214;6.556;2023-07-13T05:08:08;4.95;;;2.47;;
51907;SDS011;39320;53.214;6.556;2023-07-13T05:10:34;4.75;;;2.35;;
51907;SDS011;39320;53.214;6.556;2023-07-13T05:13:00;8.20;;;3.25;;
51907;SDS011;39320;53.214;6.556;2023-07-13T05:15:26;4.28;;;2.60;;
51907;SDS011;39320;53.214;6.556;2023-07-13T05:17:52;7.75;;;2.65;;
51907;SDS011;39320;53.214;6.556;2023-07-13T05:20:18;7.32;;;2.97;;
51907;SDS011;39320;53.214;6.556;2023-07-13T05:22:45;6.13;;;2.53;;
51907;SDS011;39320;53.214;6.556;2023-07-13T05:25:13;7.97;;;2.65;;
51907;SDS011;39320;53.214;6.556;2023-07-13T05:27:40;4.38;;;2.67;;
51907;SDS011;39320;53.214;6.556;2023-07-13T05:30:05;6.00;;;2.55;;
51907;SDS011;39320;53.214;6.556;2023-07-13T05:32:32;5.53;;;2.20;;
51907;SDS011;39320;53.214;6.556;2023-07-13T05:34:58;5.00;;;2.25;;
51907;SDS011;39320;53.214;6.556;2023-07-13T05:37:24;6.35;;;2.33;;
51907;SDS011;39320;53.214;6.556;2023-07-13T05:39:50;4.57;;;2.10;;
51907;SDS011;39320;53.214;6.556;2023-07-13T05:42:15;7.75;;;2.60;;
51907;SDS011;39320;53.214;6.556;2023-07-13T05:44:41;6.97;;;2.40;;
51907;SDS011;39320;53.214;6.556;2023-07-13T05:47:10;6.80;;;2.70;;
51907;SDS011;39320;53.214;6.556;2023-07-13T05:49:36;9.18;;;2.80;;
51907;SDS011;39320;53.214;6.556;2023-07-13T05:52:07;5.03;;;2.75;;
51907;SDS011;39320;53.214;6.556;2023-07-13T05:54:32;6.57;;;2.30;;
51907;SDS011;39320;53.214;6.556;2023-07-13T05:56:58;6.70;;;2.65;;
51907;SDS011;39320;53.214;6.556;2023-07-13T05:59:24;6.07;;;2.60;;
51907;SDS011;39320;53.214;6.556;2023-07-13T06:01:50;4.57;;;2.17;;
51907;SDS011;39320;53.214;6.556;2023-07-13T06:04:17;5.18;;;2.13;;
51907;SDS011;39320;53.214;6.556;2023-07-13T06:06:44;4.13;;;2.17;;
51907;SDS011;39320;53.214;6.556;2023-07-13T06:09:10;4.47;;;2.30;;
51907;SDS011;39320;53.214;6.556;2023-07-13T06:11:36;6.93;;;2.70;;
51907;SDS011;39320;53.214;6.556;2023-07-13T06:14:02;5.70;;;2.20;;
51907;SDS011;39320;53.214;6.556;2023-07-13T06:16:29;6.32;;;2.80;;
51907;SDS011;39320;53.214;6.556;2023-07-13T06:18:55;5.40;;;2.33;;
51907;SDS011;39320;53.214;6.556;2023-07-13T06:21:21;5.72;;;2.00;;
51907;SDS011;39320;53.214;6.556;2023-07-13T06:23:48;3.17;;;1.92;;
51907;SDS011;39320;53.214;6.556;2023-07-13T06:26:16;4.25;;;2.03;;
51907;SDS011;39320;53.214;6.556;2023-07-13T06:28:43;6.75;;;2.13;;
51907;SDS011;39320;53.214;6.556;2023-07-13T06:31:10;5.82;;;2.13;;
51907;SDS011;39320;53.214;6.556;2023-07-13T06:33:37;3.75;;;1.83;;
51907;SDS011;39320;53.214;6.556;2023-07-13T06:36:03;5.13;;;2.15;;
51907;SDS011;39320;53.214;6.556;2023-07-13T06:38:33;4.05;;;1.95;;
51907;SDS011;39320;53.214;6.556;2023-07-13T06:40:59;4.78;;;1.73;;
51907;SDS011;39320;53.214;6.556;2023-07-13T06:43:25;6.13;;;2.25;;
51907;SDS011;39320;53.214;6.556;2023-07-13T06:45:54;5.60;;;2.20;;
51907;SDS011;39320;53.214;6.556;2023-07-13T06:48:20;4.78;;;1.80;;
51907;SDS011;39320;53.214;6.556;2023-07-13T06:50:47;2.90;;;1.58;;
51907;SDS011;39320;53.214;6.556;2023-07-13T06:53:14;3.30;;;1.52;;
51907;SDS011;39320;53.214;6.556;2023-07-13T06:55:43;4.60;;;1.50;;
51907;SDS011;39320;53.214;6.556;2023-07-13T06:58:09;3.60;;;1.55;;
51907;SDS011;39320;53.214;6.556;2023-07-13T07:00:35;4.93;;;1.80;;
51907;SDS011;39320;53.214;6.556;2023-07-13T07:03:01;5.35;;;1.75;;
51907;SDS011;39320;53.214;6.556;2023-07-13T07:05:27;3.90;;;1.70;;
51907;SDS011;39320;53.214;6.556;2023-07-13T07:07:53;6.47;;;1.75;;
51907;SDS011;39320;53.214;6.556;2023-07-13T07:10:20;4.47;;;1.73;;
51907;SDS011;39320;53.214;6.556;2023-07-13T07:12:46;6.53;;;1.77;;
51907;SDS011;39320;53.214;6.556;2023-07-13T07:15:12;4.40;;;1.50;;
51907;SDS011;39320;53.214;6.556;2023-07-13T07:17:39;5.22;;;1.70;;
51907;SDS011;39320;53.214;6.556;2023-07-13T07:20:07;3.25;;;1.52;;
51907;SDS011;39320;53.214;6.556;2023-07-13T07:22:33;2.58;;;1.38;;
51907;SDS011;39320;53.214;6.556;2023-07-13T07:25:01;3.70;;;1.08;;
51907;SDS011;39320;53.214;6.556;2023-07-13T07:27:27;4.30;;;1.40;;
51907;SDS011;39320;53.214;6.556;2023-07-13T07:29:53;2.70;;;1.50;;
51907;SDS011;39320;53.214;6.556;2023-07-13T07:32:19;5.00;;;1.58;;
51907;SDS011;39320;53.214;6.556;2023-07-13T07:34:46;3.22;;;1.23;;
51907;SDS011;39320;53.214;6.556;2023-07-13T07:37:13;2.15;;;1.55;;
51907;SDS011;39320;53.214;6.556;2023-07-13T07:39:39;3.97;;;1.50;;
51907;SDS011;39320;53.214;6.556;2023-07-13T07:42:05;4.65;;;1.20;;
51907;SDS011;39320;53.214;6.556;2023-07-13T07:44:32;3.08;;;1.30;;
51907;SDS011;39320;53.214;6.556;2023-07-13T07:46:58;3.85;;;1.75;;
51907;SDS011;39320;53.214;6.556;2023-07-13T07:49:24;2.25;;;1.25;;
51907;SDS011;39320;53.214;6.556;2023-07-13T07:51:50;3.58;;;1.67;;
51907;SDS011;39320;53.214;6.556;2023-07-13T07:54:16;2.17;;;1.30;;
51907;SDS011;39320;53.214;6.556;2023-07-13T07:56:42;2.45;;;1.35;;
51907;SDS011;39320;53.214;6.556;2023-07-13T07:59:08;5.15;;;1.67;;
51907;SDS011;39320;53.214;6.556;2023-07-13T08:01:34;8.15;;;1.80;;
51907;SDS011;39320;53.214;6.556;2023-07-13T08:04:00;2.97;;;1.48;;
51907;SDS011;39320;53.214;6.556;2023-07-13T08:06:26;2.20;;;1.20;;
51907;SDS011;39320;53.214;6.556;2023-07-13T08:08:52;2.97;;;1.45;;
51907;SDS011;39320;53.214;6.556;2023-07-13T08:11:17;2.85;;;1.05;;
51907;SDS011;39320;53.214;6.556;2023-07-13T08:13:43;3.85;;;1.20;;
51907;SDS011;39320;53.214;6.556;2023-07-13T08:16:10;2.67;;;0.80;;
51907;SDS011;39320;53.214;6.556;2023-07-13T08:18:37;3.05;;;0.90;;
51907;SDS011;39320;53.214;6.556;2023-07-13T08:21:04;1.55;;;0.90;;
51907;SDS011;39320;53.214;6.556;2023-07-13T08:23:30;4.25;;;1.15;;
51907;SDS011;39320;53.214;6.556;2023-07-13T08:25:57;1.88;;;0.95;;
51907;SDS011;39320;53.214;6.556;2023-07-13T08:28:23;1.85;;;1.00;;
51907;SDS011;39320;53.214;6.556;2023-07-13T08:30:49;2.60;;;1.10;;
51907;SDS011;39320;53.214;6.556;2023-07-13T08:33:16;2.70;;;1.20;;
51907;SDS011;39320;53.214;6.556;2023-07-13T08:35:47;3.38;;;1.73;;
51907;SDS011;39320;53.214;6.556;2023-07-13T08:38:14;4.85;;;1.98;;
51907;SDS011;39320;53.214;6.556;2023-07-13T08:40:40;1.88;;;1.58;;
51907;SDS011;39320;53.214;6.556;2023-07-13T08:43:15;3.13;;;1.33;;
51907;SDS011;39320;53.214;6.556;2023-07-13T08:45:44;3.25;;;1.40;;
51907;SDS011;39320;53.214;6.556;2023-07-13T08:50:54;2.40;;;1.45;;
51907;SDS011;39320;53.214;6.556;2023-07-13T08:53:26;3.45;;;1.25;;
51907;SDS011;39320;53.214;6.556;2023-07-13T08:56:00;3.10;;;1.27;;
51907;SDS011;39320;53.214;6.556;2023-07-13T08:58:26;3.92;;;1.30;;
51907;SDS011;39320;53.214;6.556;2023-07-13T09:03:49;4.05;;;1.63;;
51907;SDS011;39320;53.214;6.556;2023-07-13T09:06:16;3.53;;;1.60;;
51907;SDS011;39320;53.214;6.556;2023-07-13T09:08:46;4.50;;;1.92;;
51907;SDS011;39320;53.214;6.556;2023-07-13T09:14:33;2.47;;;1.20;;
51907;SDS011;39320;53.214;6.556;2023-07-13T09:17:17;2.10;;;1.27;;
51907;SDS011;39320;53.214;6.556;2023-07-13T09:19:46;3.20;;;1.33;;
51907;SDS011;39320;53.214;6.556;2023-07-13T09:22:16;2.88;;;1.40;;
51907;SDS011;39320;53.214;6.556;2023-07-13T09:27:30;3.67;;;1.80;;
51907;SDS011;39320;53.214;6.556;2023-07-13T09:30:12;3.40;;;1.63;;
51907;SDS011;39320;53.214;6.556;2023-07-13T09:35:20;2.55;;;1.23;;
51907;SDS011;39320;53.214;6.556;2023-07-13T09:37:52;4.22;;;1.13;;
51907;SDS011;39320;53.214;6.556;2023-07-13T09:40:56;2.92;;;1.35;;
51907;SDS011;39320;53.214;6.556;2023-07-13T09:43:24;4.05;;;1.55;;
51907;SDS011;39320;53.214;6.556;2023-07-13T09:45:50;3.78;;;1.35;;
51907;SDS011;39320;53.214;6.556;2023-07-13T09:48:17;4.55;;;1.55;;
51907;SDS011;39320;53.214;6.556;2023-07-13T09:50:43;3.70;;;1.65;;
51907;SDS011;39320;53.214;6.556;2023-07-13T09:53:16;2.15;;;1.27;;
51907;SDS011;39320;53.214;6.556;2023-07-13T09:55:45;2.40;;;1.30;;
51907;SDS011;39320;53.214;6.556;2023-07-13T10:00:56;1.85;;;0.98;;
51907;SDS011;39320;53.214;6.556;2023-07-13T10:03:24;3.00;;;1.10;;
51907;SDS011;39320;53.214;6.556;2023-07-13T10:05:55;2.08;;;0.77;;
51907;SDS011;39320;53.214;6.556;2023-07-13T10:08:35;1.02;;;0.68;;
51907;SDS011;39320;53.214;6.556;2023-07-13T10:13:59;1.80;;;0.80;;
51907;SDS011;39320;53.214;6.556;2023-07-13T10:16:33;2.05;;;1.10;;
51907;SDS011;39320;53.214;6.556;2023-07-13T10:19:17;1.65;;;0.93;;
51907;SDS011;39320;53.214;6.556;2023-07-13T10:21:54;3.50;;;0.70;;
51907;SDS011;39320;53.214;6.556;2023-07-13T10:24:22;0.98;;;0.52;;
51907;SDS011;39320;53.214;6.556;2023-07-13T10:26:58;2.35;;;0.82;;
51907;SDS011;39320;53.214;6.556;2023-07-13T10:29:29;1.77;;;0.75;;
51907;SDS011;39320;53.214;6.556;2023-07-13T10:32:01;2.70;;;0.77;;
51907;SDS011;39320;53.214;6.556;2023-07-13T10:34:28;2.30;;;0.98;;
51907;SDS011;39320;53.214;6.556;2023-07-13T10:36:54;1.27;;;0.80;;
51907;SDS011;39320;53.214;6.556;2023-07-13T10:39:25;3.28;;;0.70;;
51907;SDS011;39320;53.214;6.556;2023-07-13T10:41:57;1.63;;;1.00;;
51907;SDS011;39320;53.214;6.556;2023-07-13T10:44:28;3.63;;;1.10;;
51907;SDS011;39320;53.214;6.556;2023-07-13T10:47:00;1.83;;;0.77;;
51907;SDS011;39320;53.214;6.556;2023-07-13T10:49:29;3.72;;;0.80;;
51907;SDS011;39320;53.214;6.556;2023-07-13T10:51:56;1.17;;;0.50;;
51907;SDS011;39320;53.214;6.556;2023-07-13T10:54:32;2.72;;;0.85;;
51907;SDS011;39320;53.214;6.556;2023-07-13T10:57:21;2.42;;;0.60;;
51907;SDS011;39320;53.214;6.556;2023-07-13T11:00:10;1.00;;;0.70;;
51907;SDS011;39320;53.214;6.556;2023-07-13T11:02:38;3.78;;;0.70;;
51907;SDS011;39320;53.214;6.556;2023-07-13T11:08:16;1.88;;;0.73;;
51907;SDS011;39320;53.214;6.556;2023-07-13T11:16:58;1.83;;;0.80;;
51907;SDS011;39320;53.214;6.556;2023-07-13T11:21:30;1.02;;;0.60;;
51907;SDS011;39320;53.214;6.556;2023-07-13T11:31:57;4.30;;;1.10;;
51907;SDS011;39320;53.214;6.556;2023-07-13T11:34:29;3.67;;;1.10;;
51907;SDS011;39320;53.214;6.556;2023-07-13T11:36:59;1.80;;;1.00;;
51907;SDS011;39320;53.214;6.556;2023-07-13T11:42:02;2.25;;;1.48;;
51907;SDS011;39320;53.214;6.556;2023-07-13T11:44:33;2.05;;;1.00;;
51907;SDS011;39320;53.214;6.556;2023-07-13T11:47:00;1.45;;;0.70;;
51907;SDS011;39320;53.214;6.556;2023-07-13T11:49:42;2.22;;;0.90;;
51907;SDS011;39320;53.214;6.556;2023-07-13T11:52:13;2.92;;;1.13;;
51907;SDS011;39320;53.214;6.556;2023-07-13T11:54:52;2.38;;;0.90;;
51907;SDS011;39320;53.214;6.556;2023-07-13T11:57:29;2.35;;;0.80;;
51907;SDS011;39320;53.214;6.556;2023-07-13T11:59:59;2.50;;;0.90;;
51907;SDS011;39320;53.214;6.556;2023-07-13T12:02:37;2.35;;;1.00;;
51907;SDS011;39320;53.214;6.556;2023-07-13T12:05:09;3.03;;;0.88;;
51907;SDS011;39320;53.214;6.556;2023-07-13T12:07:37;2.88;;;1.05;;
51907;SDS011;39320;53.214;6.556;2023-07-13T12:13:01;2.15;;;1.00;;
51907;SDS011;39320;53.214;6.556;2023-07-13T12:15:42;2.20;;;0.98;;
51907;SDS011;39320;53.214;6.556;2023-07-13T12:18:29;1.52;;;0.90;;
51907;SDS011;39320;53.214;6.556;2023-07-13T12:20:57;3.90;;;1.10;;
51907;SDS011;39320;53.214;6.556;2023-07-13T12:23:25;3.00;;;0.90;;
51907;SDS011;39320;53.214;6.556;2023-07-13T12:25:55;1.75;;;0.82;;
51907;SDS011;39320;53.214;6.556;2023-07-13T12:28:47;3.00;;;0.88;;
51907;SDS011;39320;53.214;6.556;2023-07-13T12:31:33;4.65;;;1.27;;
51907;SDS011;39320;53.214;6.556;2023-07-13T12:34:07;2.72;;;0.93;;
51907;SDS011;39320;53.214;6.556;2023-07-13T12:36:37;2.95;;;1.30;;
51907;SDS011;39320;53.214;6.556;2023-07-13T12:39:18;1.83;;;0.80;;
51907;SDS011;39320;53.214;6.556;2023-07-13T12:41:49;2.05;;;0.73;;
51907;SDS011;39320;53.214;6.556;2023-07-13T12:44:17;3.22;;;0.85;;
51907;SDS011;39320;53.214;6.556;2023-07-13T12:46:55;2.72;;;1.35;;
51907;SDS011;39320;53.214;6.556;2023-07-13T12:49:32;2.95;;;0.93;;
51907;SDS011;39320;53.214;6.556;2023-07-13T12:52:01;2.58;;;0.77;;
51907;SDS011;39320;53.214;6.556;2023-07-13T12:54:29;1.05;;;0.60;;
51907;SDS011;39320;53.214;6.556;2023-07-13T12:56:56;1.42;;;0.52;;
51907;SDS011;39320;53.214;6.556;2023-07-13T12:59:24;3.63;;;0.93;;
51907;SDS011;39320;53.214;6.556;2023-07-13T13:01:54;2.40;;;0.73;;
51907;SDS011;39320;53.214;6.556;2023-07-13T13:04:20;2.38;;;1.00;;
51907;SDS011;39320;53.214;6.556;2023-07-13T13:06:47;2.03;;;0.95;;
51907;SDS011;39320;53.214;6.556;2023-07-13T13:09:16;4.57;;;1.10;;
51907;SDS011;39320;53.214;6.556;2023-07-13T13:11:45;4.07;;;0.95;;
51907;SDS011;39320;53.214;6.556;2023-07-13T13:14:11;1.67;;;1.02;;
51907;SDS011;39320;53.214;6.556;2023-07-13T13:16:46;2.13;;;0.90;;
51907;SDS011;39320;53.214;6.556;2023-07-13T13:19:18;3.15;;;1.15;;
51907;SDS011;39320;53.214;6.556;2023-07-13T13:21:52;3.72;;;1.33;;
51907;SDS011;39320;53.214;6.556;2023-07-13T13:24:20;3.20;;;1.48;;
51907;SDS011;39320;53.214;6.556;2023-07-13T13:26:47;3.50;;;1.63;;
51907;SDS011;39320;53.214;6.556;2023-07-13T13:29:16;2.65;;;0.90;;
51907;SDS011;39320;53.214;6.556;2023-07-13T13:31:44;3.70;;;0.98;;
51907;SDS011;39320;53.214;6.556;2023-07-13T13:34:11;3.05;;;1.02;;
51907;SDS011;39320;53.214;6.556;2023-07-13T13:36:39;1.75;;;1.00;;
51907;SDS011;39320;53.214;6.556;2023-07-13T13:41:48;2.40;;;1.10;;
51907;SDS011;39320;53.214;6.556;2023-07-13T13:44:18;3.05;;;1.13;;
51907;SDS011;39320;53.214;6.556;2023-07-13T13:46:45;3.20;;;1.25;;
51907;SDS011;39320;53.214;6.556;2023-07-13T13:49:14;3.05;;;1.30;;
51907;SDS011;39320;53.214;6.556;2023-07-13T13:51:46;2.83;;;1.02;;
51907;SDS011;39320;53.214;6.556;2023-07-13T13:54:13;2.38;;;1.00;;
51907;SDS011;39320;53.214;6.556;2023-07-13T13:56:44;1.42;;;0.98;;
51907;SDS011;39320;53.214;6.556;2023-07-13T13:59:14;2.08;;;1.08;;
51907;SDS011;39320;53.214;6.556;2023-07-13T14:01:44;3.13;;;1.23;;
51907;SDS011;39320;53.214;6.556;2023-07-13T14:04:16;2.35;;;1.00;;
51907;SDS011;39320;53.214;6.556;2023-07-13T14:06:44;2.85;;;0.95;;
51907;SDS011;39320;53.214;6.556;2023-07-13T14:09:14;4.20;;;1.30;;
51907;SDS011;39320;53.214;6.556;2023-07-13T14:11:43;3.60;;;1.10;;
51907;SDS011;39320;53.214;6.556;2023-07-13T14:14:17;3.58;;;1.10;;
51907;SDS011;39320;53.214;6.556;2023-07-13T14:16:48;1.98;;;0.80;;
51907;SDS011;39320;53.214;6.556;2023-07-13T14:19:18;2.63;;;0.90;;
51907;SDS011;39320;53.214;6.556;2023-07-13T14:21:44;2.50;;;1.00;;
51907;SDS011;39320;53.214;6.556;2023-07-13T14:24:12;3.00;;;0.95;;
51907;SDS011;39320;53.214;6.556;2023-07-13T14:26:39;1.48;;;0.80;;
51907;SDS011;39320;53.214;6.556;2023-07-13T14:29:13;3.30;;;0.93;;
51907;SDS011;39320;53.214;6.556;2023-07-13T14:31:43;2.65;;;0.90;;
51907;SDS011;39320;53.214;6.556;2023-07-13T14:34:10;2.67;;;0.93;;
51907;SDS011;39320;53.214;6.556;2023-07-13T14:36:38;1.80;;;1.00;;
51907;SDS011;39320;53.214;6.556;2023-07-13T14:41:43;1.73;;;0.90;;
51907;SDS011;39320;53.214;6.556;2023-07-13T14:44:13;2.25;;;1.10;;
51907;SDS011;39320;53.214;6.556;2023-07-13T14:46:40;1.55;;;0.93;;
51907;SDS011;39320;53.214;6.556;2023-07-13T14:51:39;3.00;;;1.27;;
51907;SDS011;39320;53.214;6.556;2023-07-13T14:54:07;4.95;;;1.20;;
51907;SDS011;39320;53.214;6.556;2023-07-13T14:56:34;2.92;;;1.02;;
51907;SDS011;39320;53.214;6.556;2023-07-13T14:59:01;3.08;;;1.67;;
51907;SDS011;39320;53.214;6.556;2023-07-13T15:01:26;2.25;;;0.90;;
51907;SDS011;39320;53.214;6.556;2023-07-13T15:03:55;3.42;;;1.13;;
51907;SDS011;39320;53.214;6.556;2023-07-13T15:06:22;3.58;;;1.10;;
51907;SDS011;39320;53.214;6.556;2023-07-13T15:08:48;3.53;;;1.45;;
51907;SDS011;39320;53.214;6.556;2023-07-13T15:11:15;2.03;;;0.93;;
51907;SDS011;39320;53.214;6.556;2023-07-13T15:13:41;3.03;;;1.00;;
51907;SDS011;39320;53.214;6.556;2023-07-13T15:16:21;1.65;;;1.23;;
51907;SDS011;39320;53.214;6.556;2023-07-13T15:18:49;3.67;;;1.60;;
51907;SDS011;39320;53.214;6.556;2023-07-13T15:21:20;3.13;;;1.00;;
51907;SDS011;39320;53.214;6.556;2023-07-13T15:23:49;2.97;;;1.45;;
51907;SDS011;39320;53.214;6.556;2023-07-13T15:26:16;3.70;;;1.40;;
51907;SDS011;39320;53.214;6.556;2023-07-13T15:28:43;4.10;;;1.40;;
51907;SDS011;39320;53.214;6.556;2023-07-13T15:31:18;3.13;;;1.50;;
51907;SDS011;39320;53.214;6.556;2023-07-13T15:33:52;2.92;;;1.30;;
51907;SDS011;39320;53.214;6.556;2023-07-13T15:36:20;3.22;;;1.50;;
51907;SDS011;39320;53.214;6.556;2023-07-13T15:38:47;3.65;;;1.50;;
51907;SDS011;39320;53.214;6.556;2023-07-13T15:43:46;2.63;;;1.17;;
51907;SDS011;39320;53.214;6.556;2023-07-13T15:46:12;4.22;;;1.20;;
51907;SDS011;39320;53.214;6.556;2023-07-13T15:48:39;3.78;;;1.23;;
51907;SDS011;39320;53.214;6.556;2023-07-13T15:51:05;3.35;;;1.58;;
51907;SDS011;39320;53.214;6.556;2023-07-13T15:53:38;4.22;;;1.38;;